Pittsburg, Iowa
Current Conditions -  °F | °C
As of 4:15 AM on Tuesday 21 Oct 2014 (Local Time) from KFFL Reporting Station
NA  
Wind Chill: 37°   Ceiling: NA
Heat Index: 41°   Visibility: NA
Dew Point: 37°   Wind: 6mph
Humidity: 87%   Direction: 60°ENE
Pressure: 30.08"   Gusts: NA
Location:  40.7687°N, 92.0788°W
Report Text: KFFL 210915Z AUTO 06005KT 05/03 A3008 RMK AO2
Loading
Personal Weather Stations






























Interactive Weather Map
Tropical Storm Tracking
New forecast layout! Learn more

10-Day Weather Forecast

Advertisements
Track Severe Weather on mobile